aviador You're here:

ZWWW Decoded Metar

URUMQI in CHINA
Report Time2017-05-28 23:30:00
UTC Time2017-05-29 00:03:48
Flight Rules vfr VFR
Wind150° at 8 kt
W.Decomp.*RWY 07: 1.8 kt HW 7.8 kt RCW
W.Rank150° ranks 3
Current wind is above 150° avg. (5.8)
Visibility9999 m
Phenomena:N/A
Clouds:N/A
Expected CloudBase > 5,200 ft AGL from Temp-Dew spread
CeilingNone
Temp21°C (ISA +10)
Dew Point08°C (43% RH)
AAT17.6°C
QNH1015 hPa
Density Alt3,422 ft
Elevation2,146 ft
Report Wrong Elevation
Raw Report
ZWWW 282330Z 15004MPS 130V190 CAVOK 21/08 Q1015 NOSIG=

Extra information for ZWWW:More info

Metar Taf Metar & Taf Last 4 Metars F.Rules Stats Wind Profile Meteogram Temp Stats Airport Information Weather charts Add Link Nearby VenuesMetar ALERT Operation Metar Decoded Social comments